sensor_id;sensor_type;location;lat;lon;timestamp;temperature;humidity
22984;DHT22;11658;48.908;9.140;2022-12-24T05:01:36;9.60;99.90
22984;DHT22;11658;48.908;9.140;2022-12-24T05:04:01;9.60;99.90
22984;DHT22;11658;48.908;9.140;2022-12-24T05:06:31;9.70;99.90
22984;DHT22;11658;48.908;9.140;2022-12-24T05:08:58;9.60;99.90
22984;DHT22;11658;48.908;9.140;2022-12-24T05:11:24;9.60;99.90
22984;DHT22;11658;48.908;9.140;2022-12-24T05:13:49;9.50;99.90
22984;DHT22;11658;48.908;9.140;2022-12-24T05:16:17;9.50;99.90
22984;DHT22;11658;48.908;9.140;2022-12-24T05:18:43;9.60;99.90
22984;DHT22;11658;48.908;9.140;2022-12-24T05:21:10;9.50;99.90
22984;DHT22;11658;48.908;9.140;2022-12-24T05:23:37;9.50;99.90
22984;DHT22;11658;48.908;9.140;2022-12-24T05:28:55;9.30;99.90
22984;DHT22;11658;48.908;9.140;2022-12-24T05:31:23;9.30;99.90
22984;DHT22;11658;48.908;9.140;2022-12-24T05:33:49;9.30;99.90
22984;DHT22;11658;48.908;9.140;2022-12-24T05:36:15;9.30;99.90
22984;DHT22;11658;48.908;9.140;2022-12-24T05:38:40;9.30;99.90
22984;DHT22;11658;48.908;9.140;2022-12-24T05:41:07;9.20;99.90
22984;DHT22;11658;48.908;9.140;2022-12-24T05:43:34;9.20;99.90
22984;DHT22;11658;48.908;9.140;2022-12-24T05:46:02;9.20;99.90
22984;DHT22;11658;48.908;9.140;2022-12-24T05:48:27;9.20;99.90
22984;DHT22;11658;48.908;9.140;2022-12-24T05:50:54;9.20;99.90
22984;DHT22;11658;48.908;9.140;2022-12-24T05:53:20;9.20;99.90
22984;DHT22;11658;48.908;9.140;2022-12-24T05:55:47;9.20;99.90
22984;DHT22;11658;48.908;9.140;2022-12-24T05:58:13;9.10;99.90
22984;DHT22;11658;48.908;9.140;2022-12-24T06:00:38;9.20;99.90
22984;DHT22;11658;48.908;9.140;2022-12-24T06:03:04;9.10;99.90
22984;DHT22;11658;48.908;9.140;2022-12-24T06:05:29;9.20;99.90
22984;DHT22;11658;48.908;9.140;2022-12-24T06:07:55;9.20;99.90
22984;DHT22;11658;48.908;9.140;2022-12-24T06:10:21;9.10;99.90
22984;DHT22;11658;48.908;9.140;2022-12-24T06:12:46;9.10;99.90
22984;DHT22;11658;48.908;9.140;2022-12-24T06:15:12;9.20;99.90
22984;DHT22;11658;48.908;9.140;2022-12-24T06:17:38;9.20;99.90
22984;DHT22;11658;48.908;9.140;2022-12-24T06:20:04;9.20;99.90
22984;DHT22;11658;48.908;9.140;2022-12-24T06:22:30;9.10;99.90
22984;DHT22;11658;48.908;9.140;2022-12-24T06:24:55;9.00;99.90
22984;DHT22;11658;48.908;9.140;2022-12-24T06:27:21;9.00;99.90
22984;DHT22;11658;48.908;9.140;2022-12-24T06:29:46;9.00;99.90
22984;DHT22;11658;48.908;9.140;2022-12-24T06:32:12;9.00;99.90
22984;DHT22;11658;48.908;9.140;2022-12-24T06:34:37;9.10;99.90
22984;DHT22;11658;48.908;9.140;2022-12-24T06:37:04;9.10;99.90
22984;DHT22;11658;48.908;9.140;2022-12-24T06:39:29;9.10;99.90
22984;DHT22;11658;48.908;9.140;2022-12-24T06:41:55;9.10;99.90
22984;DHT22;11658;48.908;9.140;2022-12-24T06:44:21;9.10;99.90
22984;DHT22;11658;48.908;9.140;2022-12-24T06:46:46;9.00;99.90
22984;DHT22;11658;48.908;9.140;2022-12-24T06:49:12;9.00;99.90
22984;DHT22;11658;48.908;9.140;2022-12-24T06:51:37;9.00;99.90
22984;DHT22;11658;48.908;9.140;2022-12-24T06:54:03;9.10;99.90
22984;DHT22;11658;48.908;9.140;2022-12-24T06:56:29;9.20;99.90
22984;DHT22;11658;48.908;9.140;2022-12-24T06:58:54;9.20;99.90
22984;DHT22;11658;48.908;9.140;2022-12-24T07:01:20;9.10;99.90
22984;DHT22;11658;48.908;9.140;2022-12-24T07:03:46;9.10;99.90
22984;DHT22;11658;48.908;9.140;2022-12-24T07:06:23;9.10;99.90
22984;DHT22;11658;48.908;9.140;2022-12-24T07:08:49;9.00;99.90
22984;DHT22;11658;48.908;9.140;2022-12-24T07:11:16;8.90;99.90
22984;DHT22;11658;48.908;9.140;2022-12-24T07:13:41;8.90;99.90
22984;DHT22;11658;48.908;9.140;2022-12-24T07:16:07;8.90;99.90
22984;DHT22;11658;48.908;9.140;2022-12-24T07:18:33;8.80;99.90
22984;DHT22;11658;48.908;9.140;2022-12-24T07:21:01;8.80;99.90
22984;DHT22;11658;48.908;9.140;2022-12-24T07:23:27;8.80;99.90
22984;DHT22;11658;48.908;9.140;2022-12-24T07:25:52;8.80;99.90
22984;DHT22;11658;48.908;9.140;2022-12-24T07:28:18;8.90;99.90
22984;DHT22;11658;48.908;9.140;2022-12-24T07:30:43;8.90;99.90
22984;DHT22;11658;48.908;9.140;2022-12-24T07:33:09;9.00;99.90
22984;DHT22;11658;48.908;9.140;2022-12-24T07:35:35;9.10;99.90
22984;DHT22;11658;48.908;9.140;2022-12-24T07:38:01;9.10;99.90
22984;DHT22;11658;48.908;9.140;2022-12-24T07:40:26;9.10;99.90
22984;DHT22;11658;48.908;9.140;2022-12-24T07:42:52;9.10;99.90
22984;DHT22;11658;48.908;9.140;2022-12-24T07:45:18;9.10;99.90
22984;DHT22;11658;48.908;9.140;2022-12-24T07:47:43;9.10;99.90
22984;DHT22;11658;48.908;9.140;2022-12-24T07:50:09;9.10;99.90
22984;DHT22;11658;48.908;9.140;2022-12-24T07:52:35;9.10;99.90
22984;DHT22;11658;48.908;9.140;2022-12-24T07:55:00;9.10;99.90
22984;DHT22;11658;48.908;9.140;2022-12-24T07:57:26;9.10;99.90
22984;DHT22;11658;48.908;9.140;2022-12-24T07:59:51;9.10;99.90
22984;DHT22;11658;48.908;9.140;2022-12-24T08:02:17;9.20;99.90
22984;DHT22;11658;48.908;9.140;2022-12-24T08:04:42;9.20;99.90
22984;DHT22;11658;48.908;9.140;2022-12-24T08:07:08;9.20;99.90
22984;DHT22;11658;48.908;9.140;2022-12-24T08:09:34;9.20;99.90
22984;DHT22;11658;48.908;9.140;2022-12-24T08:12:00;9.30;99.90
22984;DHT22;11658;48.908;9.140;2022-12-24T08:14:28;9.30;99.90
22984;DHT22;11658;48.908;9.140;2022-12-24T08:16:54;9.30;99.90
22984;DHT22;11658;48.908;9.140;2022-12-24T08:19:19;9.40;99.90
22984;DHT22;11658;48.908;9.140;2022-12-24T08:21:45;9.50;99.90
22984;DHT22;11658;48.908;9.140;2022-12-24T08:24:11;9.50;99.90
22984;DHT22;11658;48.908;9.140;2022-12-24T08:26:36;9.50;99.90
22984;DHT22;11658;48.908;9.140;2022-12-24T08:29:03;9.50;99.90
22984;DHT22;11658;48.908;9.140;2022-12-24T08:31:29;9.60;99.90
22984;DHT22;11658;48.908;9.140;2022-12-24T08:33:55;9.60;99.90
22984;DHT22;11658;48.908;9.140;2022-12-24T08:36:20;9.60;99.90
22984;DHT22;11658;48.908;9.140;2022-12-24T08:38:46;9.60;99.90
22984;DHT22;11658;48.908;9.140;2022-12-24T08:41:12;9.60;99.90
22984;DHT22;11658;48.908;9.140;2022-12-24T08:43:37;9.70;99.90
22984;DHT22;11658;48.908;9.140;2022-12-24T08:46:04;9.80;99.90
22984;DHT22;11658;48.908;9.140;2022-12-24T08:48:31;9.70;99.90
22984;DHT22;11658;48.908;9.140;2022-12-24T08:50:57;9.70;99.90
22984;DHT22;11658;48.908;9.140;2022-12-24T08:53:23;9.70;99.90
22984;DHT22;11658;48.908;9.140;2022-12-24T08:55:49;9.60;99.90
22984;DHT22;11658;48.908;9.140;2022-12-24T08:58:14;9.60;99.90
22984;DHT22;11658;48.908;9.140;2022-12-24T09:00:40;9.60;99.90
22984;DHT22;11658;48.908;9.140;2022-12-24T09:03:05;9.70;99.90
22984;DHT22;11658;48.908;9.140;2022-12-24T09:05:31;9.70;99.90
22984;DHT22;11658;48.908;9.140;2022-12-24T09:07:56;9.70;99.90
22984;DHT22;11658;48.908;9.140;2022-12-24T09:10:22;9.80;99.90
22984;DHT22;11658;48.908;9.140;2022-12-24T09:12:48;9.80;99.90
22984;DHT22;11658;48.908;9.140;2022-12-24T09:15:14;9.90;99.90
22984;DHT22;11658;48.908;9.140;2022-12-24T09:17:40;9.90;99.90
22984;DHT22;11658;48.908;9.140;2022-12-24T09:20:06;9.80;99.90
22984;DHT22;11658;48.908;9.140;2022-12-24T09:22:37;9.70;99.90
22984;DHT22;11658;48.908;9.140;2022-12-24T09:25:03;9.70;99.90
22984;DHT22;11658;48.908;9.140;2022-12-24T09:27:30;9.70;99.90
22984;DHT22;11658;48.908;9.140;2022-12-24T09:29:56;9.80;99.90
22984;DHT22;11658;48.908;9.140;2022-12-24T09:32:21;9.90;99.90
22984;DHT22;11658;48.908;9.140;2022-12-24T09:34:47;10.00;99.90
22984;DHT22;11658;48.908;9.140;2022-12-24T09:37:13;10.10;99.90
22984;DHT22;11658;48.908;9.140;2022-12-24T09:39:38;10.20;99.90
22984;DHT22;11658;48.908;9.140;2022-12-24T09:42:46;10.30;99.90
22984;DHT22;11658;48.908;9.140;2022-12-24T09:45:18;10.40;99.90
22984;DHT22;11658;48.908;9.140;2022-12-24T09:48:12;10.50;99.90
22984;DHT22;11658;48.908;9.140;2022-12-24T09:53:20;10.70;99.90
22984;DHT22;11658;48.908;9.140;2022-12-24T09:55:50;10.90;99.90
22984;DHT22;11658;48.908;9.140;2022-12-24T09:58:24;11.00;99.90
22984;DHT22;11658;48.908;9.140;2022-12-24T10:00:52;11.20;99.90
22984;DHT22;11658;48.908;9.140;2022-12-24T10:03:18;11.30;99.90
22984;DHT22;11658;48.908;9.140;2022-12-24T10:08:54;11.40;99.90
22984;DHT22;11658;48.908;9.140;2022-12-24T10:16:58;11.80;99.90
22984;DHT22;11658;48.908;9.140;2022-12-24T10:19:53;12.00;99.90
22984;DHT22;11658;48.908;9.140;2022-12-24T10:22:29;12.20;99.90
22984;DHT22;11658;48.908;9.140;2022-12-24T10:27:48;12.40;99.90
22984;DHT22;11658;48.908;9.140;2022-12-24T10:30:18;12.30;99.90
22984;DHT22;11658;48.908;9.140;2022-12-24T10:32:47;12.10;99.90
22984;DHT22;11658;48.908;9.140;2022-12-24T10:37:40;11.80;99.90
22984;DHT22;11658;48.908;9.140;2022-12-24T10:40:37;11.80;99.90
22984;DHT22;11658;48.908;9.140;2022-12-24T10:42:59;11.70;99.90
22984;DHT22;11658;48.908;9.140;2022-12-24T10:45:29;11.60;99.90
22984;DHT22;11658;48.908;9.140;2022-12-24T10:48:00;11.50;99.90
22984;DHT22;11658;48.908;9.140;2022-12-24T10:50:31;11.30;99.90
22984;DHT22;11658;48.908;9.140;2022-12-24T10:53:13;11.10;99.90
22984;DHT22;11658;48.908;9.140;2022-12-24T10:55:41;11.10;99.90
22984;DHT22;11658;48.908;9.140;2022-12-24T10:58:14;11.00;99.90
22984;DHT22;11658;48.908;9.140;2022-12-24T11:00:41;10.90;99.90
22984;DHT22;11658;48.908;9.140;2022-12-24T11:05:38;11.00;99.90
22984;DHT22;11658;48.908;9.140;2022-12-24T11:10:53;11.20;99.90
22984;DHT22;11658;48.908;9.140;2022-12-24T11:13:26;11.30;99.90
22984;DHT22;11658;48.908;9.140;2022-12-24T11:16:13;11.30;99.90
22984;DHT22;11658;48.908;9.140;2022-12-24T11:18:47;11.40;99.90
22984;DHT22;11658;48.908;9.140;2022-12-24T11:21:19;11.50;99.90
22984;DHT22;11658;48.908;9.140;2022-12-24T11:23:57;11.60;99.90
22984;DHT22;11658;48.908;9.140;2022-12-24T11:26:25;11.60;99.90
22984;DHT22;11658;48.908;9.140;2022-12-24T11:31:39;11.50;99.90
22984;DHT22;11658;48.908;9.140;2022-12-24T11:34:26;11.40;99.90
22984;DHT22;11658;48.908;9.140;2022-12-24T11:36:54;11.40;99.90
22984;DHT22;11658;48.908;9.140;2022-12-24T11:39:23;11.30;99.90
22984;DHT22;11658;48.908;9.140;2022-12-24T11:41:49;11.20;99.90
22984;DHT22;11658;48.908;9.140;2022-12-24T11:44:26;11.20;99.90
22984;DHT22;11658;48.908;9.140;2022-12-24T11:46:53;11.10;99.90
22984;DHT22;11658;48.908;9.140;2022-12-24T11:49:25;11.20;99.90
22984;DHT22;11658;48.908;9.140;2022-12-24T11:51:59;11.10;99.90
22984;DHT22;11658;48.908;9.140;2022-12-24T11:54:29;11.00;99.90
22984;DHT22;11658;48.908;9.140;2022-12-24T11:56:57;10.80;99.90
22984;DHT22;11658;48.908;9.140;2022-12-24T11:59:37;10.70;99.90
22984;DHT22;11658;48.908;9.140;2022-12-24T12:04:38;10.80;99.90
22984;DHT22;11658;48.908;9.140;2022-12-24T12:07:29;10.80;99.90
22984;DHT22;11658;48.908;9.140;2022-12-24T12:10:05;10.90;99.90
22984;DHT22;11658;48.908;9.140;2022-12-24T12:12:36;10.90;99.90
22984;DHT22;11658;48.908;9.140;2022-12-24T12:15:09;10.80;99.90
22984;DHT22;11658;48.908;9.140;2022-12-24T12:25:53;10.90;99.90
22984;DHT22;11658;48.908;9.140;2022-12-24T12:31:33;11.10;99.90
22984;DHT22;11658;48.908;9.140;2022-12-24T12:36:41;11.30;99.90
22984;DHT22;11658;48.908;9.140;2022-12-24T12:39:09;11.40;99.90
22984;DHT22;11658;48.908;9.140;2022-12-24T12:42:02;11.50;99.90
22984;DHT22;11658;48.908;9.140;2022-12-24T12:57:49;12.10;99.90
22984;DHT22;11658;48.908;9.140;2022-12-24T13:00:17;12.10;99.90
22984;DHT22;11658;48.908;9.140;2022-12-24T13:21:22;12.00;99.90
22984;DHT22;11658;48.908;9.140;2022-12-24T13:23:49;11.80;99.90
22984;DHT22;11658;48.908;9.140;2022-12-24T13:26:15;11.50;99.90
22984;DHT22;11658;48.908;9.140;2022-12-24T13:28:42;11.30;99.90
22984;DHT22;11658;48.908;9.140;2022-12-24T13:36:11;10.90;99.90
22984;DHT22;11658;48.908;9.140;2022-12-24T13:38:54;10.90;99.90
22984;DHT22;11658;48.908;9.140;2022-12-24T13:47:01;11.00;99.90
22984;DHT22;11658;48.908;9.140;2022-12-24T13:49:36;10.90;99.90
22984;DHT22;11658;48.908;9.140;2022-12-24T13:54:38;10.90;99.90
22984;DHT22;11658;48.908;9.140;2022-12-24T14:02:45;10.90;99.90
22984;DHT22;11658;48.908;9.140;2022-12-24T14:05:31;10.80;99.90
22984;DHT22;11658;48.908;9.140;2022-12-24T14:08:00;10.80;99.90
22984;DHT22;11658;48.908;9.140;2022-12-24T14:10:30;10.70;99.90
22984;DHT22;11658;48.908;9.140;2022-12-24T14:12:58;10.70;99.90
22984;DHT22;11658;48.908;9.140;2022-12-24T14:18:08;10.60;99.90
22984;DHT22;11658;48.908;9.140;2022-12-24T14:20:35;10.50;99.90
22984;DHT22;11658;48.908;9.140;2022-12-24T14:23:04;10.50;99.90
22984;DHT22;11658;48.908;9.140;2022-12-24T14:25:30;10.40;99.90
22984;DHT22;11658;48.908;9.140;2022-12-24T14:28:04;10.40;99.90
22984;DHT22;11658;48.908;9.140;2022-12-24T14:30:31;10.50;99.90
22984;DHT22;11658;48.908;9.140;2022-12-24T14:32:56;10.50;99.90
22984;DHT22;11658;48.908;9.140;2022-12-24T14:35:28;10.50;99.90
22984;DHT22;11658;48.908;9.140;2022-12-24T14:40:28;10.30;99.90
22984;DHT22;11658;48.908;9.140;2022-12-24T14:45:53;10.30;99.90
22984;DHT22;11658;48.908;9.140;2022-12-24T14:48:49;10.20;99.90
22984;DHT22;11658;48.908;9.140;2022-12-24T14:51:46;10.10;99.90
22984;DHT22;11658;48.908;9.140;2022-12-24T14:54:33;10.10;99.90
22984;DHT22;11658;48.908;9.140;2022-12-24T15:07:54;9.70;99.90
22984;DHT22;11658;48.908;9.140;2022-12-24T15:10:30;9.70;99.90
22984;DHT22;11658;48.908;9.140;2022-12-24T15:13:01;9.70;99.90
22984;DHT22;11658;48.908;9.140;2022-12-24T15:15:27;9.70;99.90
22984;DHT22;11658;48.908;9.140;2022-12-24T15:17:54;9.80;99.90
22984;DHT22;11658;48.908;9.140;2022-12-24T15:20:23;9.80;99.90
22984;DHT22;11658;48.908;9.140;2022-12-24T15:22:51;9.80;99.90
22984;DHT22;11658;48.908;9.140;2022-12-24T15:27:46;9.70;99.90
22984;DHT22;11658;48.908;9.140;2022-12-24T15:30:22;9.60;99.90
22984;DHT22;11658;48.908;9.140;2022-12-24T15:32:56;9.60;99.90
22984;DHT22;11658;48.908;9.140;2022-12-24T15:38:01;9.50;99.90
22984;DHT22;11658;48.908;9.140;2022-12-24T15:40:28;9.40;99.90
22984;DHT22;11658;48.908;9.140;2022-12-24T15:42:53;9.40;99.90
22984;DHT22;11658;48.908;9.140;2022-12-24T15:45:28;9.50;99.90
22984;DHT22;11658;48.908;9.140;2022-12-24T15:47:58;9.50;99.90
22984;DHT22;11658;48.908;9.140;2022-12-24T15:50:44;9.60;99.90
22984;DHT22;11658;48.908;9.140;2022-12-24T15:53:16;9.60;99.90
22984;DHT22;11658;48.908;9.140;2022-12-24T15:56:10;9.60;99.90
22984;DHT22;11658;48.908;9.140;2022-12-24T16:03:37;9.60;99.90
22984;DHT22;11658;48.908;9.140;2022-12-24T16:06:05;9.50;99.90
22984;DHT22;11658;48.908;9.140;2022-12-24T16:08:36;9.60;99.90
22984;DHT22;11658;48.908;9.140;2022-12-24T16:11:09;9.50;99.90
22984;DHT22;11658;48.908;9.140;2022-12-24T16:13:38;9.50;99.90
22984;DHT22;11658;48.908;9.140;2022-12-24T16:16:08;9.60;99.90
22984;DHT22;11658;48.908;9.140;2022-12-24T16:18:56;9.60;99.90
22984;DHT22;11658;48.908;9.140;2022-12-24T16:21:23;9.70;99.90
22984;DHT22;11658;48.908;9.140;2022-12-24T16:23:52;9.70;99.90
22984;DHT22;11658;48.908;9.140;2022-12-24T16:26:18;9.80;99.90
22984;DHT22;11658;48.908;9.140;2022-12-24T16:28:44;9.70;99.90
22984;DHT22;11658;48.908;9.140;2022-12-24T16:31:17;9.70;99.90
22984;DHT22;11658;48.908;9.140;2022-12-24T16:33:44;9.70;99.90
22984;DHT22;11658;48.908;9.140;2022-12-24T16:36:10;9.70;99.90
22984;DHT22;11658;48.908;9.140;2022-12-24T16:38:36;9.70;99.90
22984;DHT22;11658;48.908;9.140;2022-12-24T16:41:21;9.80;99.90
22984;DHT22;11658;48.908;9.140;2022-12-24T16:43:47;9.70;99.90
22984;DHT22;11658;48.908;9.140;2022-12-24T16:46:15;9.60;99.90
22984;DHT22;11658;48.908;9.140;2022-12-24T16:48:45;9.60;99.90
22984;DHT22;11658;48.908;9.140;2022-12-24T16:51:11;9.50;99.90
22984;DHT22;11658;48.908;9.140;2022-12-24T16:53:36;9.60;99.90
22984;DHT22;11658;48.908;9.140;2022-12-24T16:56:02;9.60;99.90
22984;DHT22;11658;48.908;9.140;2022-12-24T16:58:28;9.60;99.90
22984;DHT22;11658;48.908;9.140;2022-12-24T17:00:54;9.60;99.90
22984;DHT22;11658;48.908;9.140;2022-12-24T17:03:20;9.60;99.90
22984;DHT22;11658;48.908;9.140;2022-12-24T17:05:45;9.50;99.90
22984;DHT22;11658;48.908;9.140;2022-12-24T17:08:11;9.50;99.90
22984;DHT22;11658;48.908;9.140;2022-12-24T17:10:38;9.50;99.90
22984;DHT22;11658;48.908;9.140;2022-12-24T17:13:04;9.70;99.90
22984;DHT22;11658;48.908;9.140;2022-12-24T17:15:30;9.50;99.90
22984;DHT22;11658;48.908;9.140;2022-12-24T17:17:56;9.50;99.90
22984;DHT22;11658;48.908;9.140;2022-12-24T17:20:22;9.50;99.90
22984;DHT22;11658;48.908;9.140;2022-12-24T17:22:48;9.50;99.90
22984;DHT22;11658;48.908;9.140;2022-12-24T17:25:14;9.50;99.90
22984;DHT22;11658;48.908;9.140;2022-12-24T17:27:40;9.50;99.90
22984;DHT22;11658;48.908;9.140;2022-12-24T17:30:08;9.40;99.90
22984;DHT22;11658;48.908;9.140;2022-12-24T17:32:33;9.50;99.90
22984;DHT22;11658;48.908;9.140;2022-12-24T17:34:59;9.60;99.90
22984;DHT22;11658;48.908;9.140;2022-12-24T17:37:26;9.60;99.90
22984;DHT22;11658;48.908;9.140;2022-12-24T17:39:52;9.60;99.90
22984;DHT22;11658;48.908;9.140;2022-12-24T17:42:18;9.60;99.90
22984;DHT22;11658;48.908;9.140;2022-12-24T17:44:43;9.70;99.90
22984;DHT22;11658;48.908;9.140;2022-12-24T17:47:09;9.70;99.90
22984;DHT22;11658;48.908;9.140;2022-12-24T17:49:35;9.80;99.90
22984;DHT22;11658;48.908;9.140;2022-12-24T17:52:01;9.70;99.90
22984;DHT22;11658;48.908;9.140;2022-12-24T17:54:26;9.80;99.90
22984;DHT22;11658;48.908;9.140;2022-12-24T17:56:52;9.80;99.90
22984;DHT22;11658;48.908;9.140;2022-12-24T17:59:17;9.90;99.90
22984;DHT22;11658;48.908;9.140;2022-12-24T18:01:43;9.80;99.90
22984;DHT22;11658;48.908;9.140;2022-12-24T18:04:09;9.80;99.90
22984;DHT22;11658;48.908;9.140;2022-12-24T18:06:38;9.80;99.90
22984;DHT22;11658;48.908;9.140;2022-12-24T18:09:03;9.80;99.90
22984;DHT22;11658;48.908;9.140;2022-12-24T18:11:32;9.70;99.90
22984;DHT22;11658;48.908;9.140;2022-12-24T18:13:59;9.80;99.90
22984;DHT22;11658;48.908;9.140;2022-12-24T18:16:35;9.80;99.90
22984;DHT22;11658;48.908;9.140;2022-12-24T18:19:02;9.80;99.90
22984;DHT22;11658;48.908;9.140;2022-12-24T18:21:30;9.80;99.90
22984;DHT22;11658;48.908;9.140;2022-12-24T18:23:57;9.80;99.90
22984;DHT22;11658;48.908;9.140;2022-12-24T18:26:25;9.80;99.90
22984;DHT22;11658;48.908;9.140;2022-12-24T18:28:53;9.90;99.90
22984;DHT22;11658;48.908;9.140;2022-12-24T18:31:19;10.00;99.90
22984;DHT22;11658;48.908;9.140;2022-12-24T18:33:46;10.00;99.90
22984;DHT22;11658;48.908;9.140;2022-12-24T18:36:13;9.90;99.90
22984;DHT22;11658;48.908;9.140;2022-12-24T18:38:39;10.00;99.90
22984;DHT22;11658;48.908;9.140;2022-12-24T18:41:06;10.00;99.90
22984;DHT22;11658;48.908;9.140;2022-12-24T18:43:32;10.00;99.90
22984;DHT22;11658;48.908;9.140;2022-12-24T18:45:58;10.00;99.90
22984;DHT22;11658;48.908;9.140;2022-12-24T18:48:23;10.00;99.90
22984;DHT22;11658;48.908;9.140;2022-12-24T18:50:56;10.00;99.90
22984;DHT22;11658;48.908;9.140;2022-12-24T18:53:23;10.00;99.90
22984;DHT22;11658;48.908;9.140;2022-12-24T18:55:49;10.10;99.90
22984;DHT22;11658;48.908;9.140;2022-12-24T18:58:15;10.10;99.90
22984;DHT22;11658;48.908;9.140;2022-12-24T19:00:40;10.00;99.90
22984;DHT22;11658;48.908;9.140;2022-12-24T19:03:06;10.00;99.90
22984;DHT22;11658;48.908;9.140;2022-12-24T19:05:32;10.00;99.90
22984;DHT22;11658;48.908;9.140;2022-12-24T19:07:58;10.00;99.90
22984;DHT22;11658;48.908;9.140;2022-12-24T19:10:24;10.00;99.90
22984;DHT22;11658;48.908;9.140;2022-12-24T19:12:49;9.90;99.90
22984;DHT22;11658;48.908;9.140;2022-12-24T19:15:15;10.00;99.90
22984;DHT22;11658;48.908;9.140;2022-12-24T19:17:41;10.00;99.90
22984;DHT22;11658;48.908;9.140;2022-12-24T19:20:07;10.10;99.90
22984;DHT22;11658;48.908;9.140;2022-12-24T19:22:33;10.10;99.90
22984;DHT22;11658;48.908;9.140;2022-12-24T19:24:59;10.10;99.90
22984;DHT22;11658;48.908;9.140;2022-12-24T19:27:25;10.10;99.90
22984;DHT22;11658;48.908;9.140;2022-12-24T19:29:50;10.10;99.90
22984;DHT22;11658;48.908;9.140;2022-12-24T19:32:16;10.10;99.90
22984;DHT22;11658;48.908;9.140;2022-12-24T19:34:41;10.20;99.90
22984;DHT22;11658;48.908;9.140;2022-12-24T19:37:07;10.20;99.90
22984;DHT22;11658;48.908;9.140;2022-12-24T19:39:33;10.20;99.90
22984;DHT22;11658;48.908;9.140;2022-12-24T19:41:59;10.20;99.90
22984;DHT22;11658;48.908;9.140;2022-12-24T19:44:25;10.20;99.90
22984;DHT22;11658;48.908;9.140;2022-12-24T19:46:50;10.20;99.90
22984;DHT22;11658;48.908;9.140;2022-12-24T19:49:16;10.10;99.90
22984;DHT22;11658;48.908;9.140;2022-12-24T19:51:41;10.10;99.90
22984;DHT22;11658;48.908;9.140;2022-12-24T19:54:08;10.00;99.90
22984;DHT22;11658;48.908;9.140;2022-12-24T19:56:35;10.00;99.90
22984;DHT22;11658;48.908;9.140;2022-12-24T19:59:01;10.10;99.90
22984;DHT22;11658;48.908;9.140;2022-12-24T20:01:29;10.00;99.90
22984;DHT22;11658;48.908;9.140;2022-12-24T20:03:55;10.00;99.90
22984;DHT22;11658;48.908;9.140;2022-12-24T20:06:23;10.00;99.90
22984;DHT22;11658;48.908;9.140;2022-12-24T20:08:49;10.00;99.90
22984;DHT22;11658;48.908;9.140;2022-12-24T20:11:18;10.10;99.90
22984;DHT22;11658;48.908;9.140;2022-12-24T20:13:44;10.00;99.90
22984;DHT22;11658;48.908;9.140;2022-12-24T20:16:12;10.10;99.90
22984;DHT22;11658;48.908;9.140;2022-12-24T20:18:38;10.10;99.90
22984;DHT22;11658;48.908;9.140;2022-12-24T20:21:06;10.10;99.90
22984;DHT22;11658;48.908;9.140;2022-12-24T20:23:32;10.10;99.90
22984;DHT22;11658;48.908;9.140;2022-12-24T20:26:00;10.20;99.90
22984;DHT22;11658;48.908;9.140;2022-12-24T20:28:26;10.10;99.90
22984;DHT22;11658;48.908;9.140;2022-12-24T20:30:53;10.10;99.90
22984;DHT22;11658;48.908;9.140;2022-12-24T20:33:19;10.10;99.90
22984;DHT22;11658;48.908;9.140;2022-12-24T20:35:44;10.10;99.90
22984;DHT22;11658;48.908;9.140;2022-12-24T20:38:10;10.10;99.90
22984;DHT22;11658;48.908;9.140;2022-12-24T20:40:42;10.00;99.90
22984;DHT22;11658;48.908;9.140;2022-12-24T20:43:10;10.00;99.90
22984;DHT22;11658;48.908;9.140;2022-12-24T20:45:36;10.00;99.90
22984;DHT22;11658;48.908;9.140;2022-12-24T20:48:04;10.00;99.90
22984;DHT22;11658;48.908;9.140;2022-12-24T20:50:29;10.00;99.90
22984;DHT22;11658;48.908;9.140;2022-12-24T20:52:56;10.00;99.90
22984;DHT22;11658;48.908;9.140;2022-12-24T20:55:22;10.00;99.90
22984;DHT22;11658;48.908;9.140;2022-12-24T20:57:49;10.00;99.90
22984;DHT22;11658;48.908;9.140;2022-12-24T21:00:15;10.00;99.90
22984;DHT22;11658;48.908;9.140;2022-12-24T21:02:41;10.00;99.90
22984;DHT22;11658;48.908;9.140;2022-12-24T21:05:07;10.00;99.90
22984;DHT22;11658;48.908;9.140;2022-12-24T21:07:33;9.90;99.90
22984;DHT22;11658;48.908;9.140;2022-12-24T21:09:59;9.90;99.90
22984;DHT22;11658;48.908;9.140;2022-12-24T21:12:25;9.90;99.90
22984;DHT22;11658;48.908;9.140;2022-12-24T21:15:09;9.80;99.90
22984;DHT22;11658;48.908;9.140;2022-12-24T21:17:35;9.90;99.90
22984;DHT22;11658;48.908;9.140;2022-12-24T21:20:04;9.80;99.90
22984;DHT22;11658;48.908;9.140;2022-12-24T21:22:30;9.80;99.90
22984;DHT22;11658;48.908;9.140;2022-12-24T21:24:55;9.80;99.90
22984;DHT22;11658;48.908;9.140;2022-12-24T21:27:21;9.80;99.90
22984;DHT22;11658;48.908;9.140;2022-12-24T21:29:46;9.80;99.90
22984;DHT22;11658;48.908;9.140;2022-12-24T21:32:12;9.80;99.90
22984;DHT22;11658;48.908;9.140;2022-12-24T21:34:37;9.80;99.90
22984;DHT22;11658;48.908;9.140;2022-12-24T21:37:03;9.80;99.90
22984;DHT22;11658;48.908;9.140;2022-12-24T21:39:29;9.90;99.90
22984;DHT22;11658;48.908;9.140;2022-12-24T21:41:54;9.90;99.90
22984;DHT22;11658;48.908;9.140;2022-12-24T21:44:20;9.90;99.90
22984;DHT22;11658;48.908;9.140;2022-12-24T21:46:45;10.00;99.90
22984;DHT22;11658;48.908;9.140;2022-12-24T21:49:11;9.90;99.90
22984;DHT22;11658;48.908;9.140;2022-12-24T21:51:55;9.90;99.90
22984;DHT22;11658;48.908;9.140;2022-12-24T21:54:20;9.80;99.90
22984;DHT22;11658;48.908;9.140;2022-12-24T21:57:05;9.70;99.90
22984;DHT22;11658;48.908;9.140;2022-12-24T21:59:52;9.70;99.90
22984;DHT22;11658;48.908;9.140;2022-12-24T22:02:19;9.70;99.90
22984;DHT22;11658;48.908;9.140;2022-12-24T22:04:45;9.60;99.90
22984;DHT22;11658;48.908;9.140;2022-12-24T22:07:20;9.50;99.90
22984;DHT22;11658;48.908;9.140;2022-12-24T22:10:05;9.50;99.90
22984;DHT22;11658;48.908;9.140;2022-12-24T22:12:49;9.40;99.90
22984;DHT22;11658;48.908;9.140;2022-12-24T22:15:15;9.30;99.90
22984;DHT22;11658;48.908;9.140;2022-12-24T22:17:40;9.20;99.90
22984;DHT22;11658;48.908;9.140;2022-12-24T22:20:06;9.10;99.90
22984;DHT22;11658;48.908;9.140;2022-12-24T22:22:32;9.00;99.90
22984;DHT22;11658;48.908;9.140;2022-12-24T22:24:57;9.00;99.90
22984;DHT22;11658;48.908;9.140;2022-12-24T22:27:23;9.00;99.90
22984;DHT22;11658;48.908;9.140;2022-12-24T22:29:49;9.00;99.90
22984;DHT22;11658;48.908;9.140;2022-12-24T22:32:14;9.00;99.90
22984;DHT22;11658;48.908;9.140;2022-12-24T22:34:40;9.00;99.90
22984;DHT22;11658;48.908;9.140;2022-12-24T22:37:05;9.00;99.90
22984;DHT22;11658;48.908;9.140;2022-12-24T22:39:31;9.00;99.90
22984;DHT22;11658;48.908;9.140;2022-12-24T22:41:56;8.90;99.90
22984;DHT22;11658;48.908;9.140;2022-12-24T22:44:22;8.90;99.90
22984;DHT22;11658;48.908;9.140;2022-12-24T22:46:48;8.80;99.90
22984;DHT22;11658;48.908;9.140;2022-12-24T22:49:14;8.80;99.90
22984;DHT22;11658;48.908;9.140;2022-12-24T22:51:39;8.90;99.90